createdAt,value
2022-11-16T00:00:02.811Z,84.50
2022-11-16T00:02:31.992Z,84.39
2022-11-16T00:04:58.498Z,83.52
2022-11-16T00:07:24.980Z,84.31
2022-11-16T00:09:51.557Z,84.55
2022-11-16T00:12:18.086Z,83.07
2022-11-16T00:14:44.533Z,82.94
2022-11-16T00:17:11.062Z,82.88
2022-11-16T00:19:37.867Z,83.59
2022-11-16T00:22:04.548Z,83.08
2022-11-16T00:24:31.104Z,83.86
2022-11-16T00:26:57.710Z,84.48
2022-11-16T00:29:25.754Z,83.96
2022-11-16T00:31:53.889Z,83.18
2022-11-16T00:34:21.561Z,84.70
2022-11-16T00:36:48.651Z,85.01
2022-11-16T00:39:16.611Z,84.33
2022-11-16T00:41:44.753Z,83.71
2022-11-16T00:44:11.575Z,84.61
2022-11-16T00:46:38.311Z,85.13
2022-11-16T00:49:05.601Z,86.41
2022-11-16T00:51:33.121Z,83.91
2022-11-16T00:53:59.846Z,84.00
2022-11-16T00:56:26.300Z,86.34
2022-11-16T00:58:52.947Z,85.84
2022-11-16T01:01:19.869Z,89.08
2022-11-16T01:03:47.757Z,86.17
2022-11-16T01:06:15.634Z,85.65
2022-11-16T01:08:42.566Z,84.52
2022-11-16T01:11:31.493Z,86.72
2022-11-16T01:13:57.957Z,86.06
2022-11-16T01:16:24.800Z,85.03
2022-11-16T01:18:53.499Z,85.17
2022-11-16T01:21:20.916Z,85.51
2022-11-16T01:23:47.657Z,86.59
2022-11-16T01:26:14.243Z,84.85
2022-11-16T01:28:40.750Z,85.36
2022-11-16T01:31:08.988Z,85.48
2022-11-16T01:33:36.794Z,85.67
2022-11-16T01:36:08.312Z,86.54
2022-11-16T01:38:35.065Z,86.68
2022-11-16T01:41:01.827Z,87.99
2022-11-16T01:43:28.401Z,86.41
2022-11-16T01:45:54.992Z,86.92
2022-11-16T01:48:27.635Z,87.04
2022-11-16T01:50:56.302Z,87.37
2022-11-16T01:53:24.728Z,85.65
2022-11-16T01:55:52.114Z,86.14
2022-11-16T01:58:23.223Z,86.61
2022-11-16T02:00:49.957Z,86.60
2022-11-16T02:03:21.000Z,87.04
2022-11-16T02:06:12.309Z,88.41
2022-11-16T02:09:11.521Z,90.11
2022-11-16T02:12:15.072Z,89.47
2022-11-16T02:14:53.239Z,90.87
2022-11-16T02:17:33.496Z,88.50
2022-11-16T02:20:29.796Z,89.25
2022-11-16T02:23:11.324Z,88.91
2022-11-16T02:26:03.260Z,89.21
2022-11-16T02:28:54.420Z,89.44
2022-11-16T02:31:27.330Z,89.60
2022-11-16T02:33:56.879Z,87.39
2022-11-16T02:36:25.692Z,87.07
2022-11-16T02:39:01.633Z,86.92
2022-11-16T02:41:34.083Z,86.89
2022-11-16T02:44:06.234Z,87.51
2022-11-16T02:46:38.187Z,87.37
2022-11-16T02:49:11.293Z,87.77
2022-11-16T02:51:40.025Z,86.81
2022-11-16T02:54:14.677Z,87.24
2022-11-16T02:57:02.950Z,88.46
2022-11-16T02:59:36.367Z,87.26
2022-11-16T03:02:18.088Z,87.03
2022-11-16T03:04:48.921Z,87.22
2022-11-16T03:07:20.390Z,86.96
2022-11-16T03:09:49.648Z,87.46
2022-11-16T03:12:22.109Z,87.70
2022-11-16T03:14:58.904Z,87.47
2022-11-16T03:17:37.907Z,88.45
2022-11-16T03:20:11.858Z,87.97
2022-11-16T03:22:48.601Z,87.73
2022-11-16T03:25:19.683Z,87.99
2022-11-16T03:27:55.027Z,88.55
2022-11-16T03:30:24.324Z,87.80
2022-11-16T03:33:01.567Z,87.93
2022-11-16T03:35:35.242Z,87.75
2022-11-16T03:38:05.408Z,88.34
2022-11-16T03:40:34.474Z,87.53
2022-11-16T03:43:03.188Z,87.43
2022-11-16T03:45:31.169Z,87.69
2022-11-16T03:47:57.630Z,87.28
2022-11-16T03:50:24.301Z,87.37
2022-11-16T03:52:50.760Z,87.33
2022-11-16T03:55:17.542Z,88.25
2022-11-16T03:57:44.014Z,87.47
2022-11-16T04:00:11.455Z,87.64
2022-11-16T04:02:38.194Z,87.58
2022-11-16T04:05:23.461Z,87.84
2022-11-16T04:08:18.799Z,87.51
2022-11-16T04:11:04.167Z,87.54
2022-11-16T04:13:51.646Z,87.36
2022-11-16T04:16:36.811Z,87.77
2022-11-16T04:19:21.971Z,87.72
2022-11-16T04:22:12.650Z,87.41
2022-11-16T04:24:41.094Z,87.33
2022-11-16T04:27:29.525Z,87.19
2022-11-16T04:29:58.762Z,87.01
2022-11-16T04:32:43.864Z,86.67
2022-11-16T04:35:29.049Z,86.94
2022-11-16T04:37:59.014Z,86.95
2022-11-16T04:40:30.369Z,86.53
2022-11-16T04:42:59.303Z,86.79
2022-11-16T04:45:46.089Z,86.39
2022-11-16T04:48:15.018Z,86.25
2022-11-16T04:50:41.963Z,86.69
2022-11-16T04:53:09.195Z,86.81
2022-11-16T04:55:36.304Z,86.58
2022-11-16T04:58:03.275Z,86.32
2022-11-16T05:00:30.339Z,86.15
2022-11-16T05:03:01.207Z,86.72
2022-11-16T05:05:28.819Z,86.31
2022-11-16T05:07:55.672Z,87.55
2022-11-16T05:10:22.227Z,87.47
2022-11-16T05:12:48.709Z,86.79
2022-11-16T05:15:17.592Z,86.41
2022-11-16T05:17:44.295Z,86.64
2022-11-16T05:20:29.937Z,86.53
2022-11-16T05:22:58.138Z,87.06
2022-11-16T05:25:24.716Z,86.97
2022-11-16T05:27:51.480Z,86.75
2022-11-16T05:30:18.549Z,86.30
2022-11-16T05:32:46.110Z,86.42
2022-11-16T05:35:13.670Z,86.10
2022-11-16T05:37:40.188Z,86.42
2022-11-16T05:40:08.716Z,86.57
2022-11-16T05:42:35.223Z,86.42
2022-11-16T05:45:01.715Z,86.63
2022-11-16T05:47:28.241Z,86.41
2022-11-16T05:49:54.716Z,86.92
2022-11-16T05:52:21.244Z,86.56
2022-11-16T05:54:47.740Z,86.19
2022-11-16T05:57:15.382Z,86.92
2022-11-16T05:59:42.636Z,86.73
2022-11-16T06:02:09.280Z,86.51
2022-11-16T06:04:35.921Z,86.96
2022-11-16T06:07:02.477Z,86.87
2022-11-16T06:09:29.115Z,86.72
2022-11-16T06:11:55.711Z,86.68
2022-11-16T06:14:22.227Z,86.96
2022-11-16T06:16:48.781Z,86.75
2022-11-16T06:19:15.441Z,86.82
2022-11-16T06:21:42.098Z,86.67
2022-11-16T06:24:09.654Z,87.04
2022-11-16T06:26:37.268Z,87.22
2022-11-16T06:29:04.202Z,87.62
2022-11-16T06:31:31.179Z,86.97
2022-11-16T06:33:57.702Z,87.13
2022-11-16T06:36:24.250Z,86.83
2022-11-16T06:38:51.099Z,86.62
2022-11-16T06:41:17.698Z,86.37
2022-11-16T06:43:44.443Z,86.60
2022-11-16T06:46:11.303Z,86.65
2022-11-16T06:48:37.998Z,86.41
2022-11-16T06:51:05.589Z,86.81
2022-11-16T06:53:32.047Z,87.01
2022-11-16T06:56:03.764Z,87.35
2022-11-16T06:58:32.147Z,87.19
2022-11-16T07:01:06.078Z,87.34
2022-11-16T07:03:32.693Z,86.82
2022-11-16T07:05:59.348Z,87.80
2022-11-16T07:08:26.011Z,87.27
2022-11-16T07:10:52.530Z,87.38
2022-11-16T07:13:19.039Z,87.26
2022-11-16T07:15:45.469Z,87.43
2022-11-16T07:18:12.062Z,87.43
2022-11-16T07:20:38.966Z,87.51
2022-11-16T07:23:07.093Z,87.21
2022-11-16T07:25:36.676Z,87.18
2022-11-16T07:28:04.804Z,87.64
2022-11-16T07:30:31.429Z,87.34
2022-11-16T07:32:59.176Z,87.44
2022-11-16T07:35:25.956Z,88.04
2022-11-16T07:37:52.517Z,88.14
2022-11-16T07:40:19.577Z,87.81
2022-11-16T07:42:46.451Z,88.26
2022-11-16T07:45:13.080Z,88.29
2022-11-16T07:47:39.644Z,88.30
2022-11-16T07:50:06.828Z,88.33
2022-11-16T07:52:33.359Z,88.90
2022-11-16T07:55:01.865Z,88.57
2022-11-16T07:57:28.723Z,89.24
2022-11-16T07:59:55.133Z,89.45
2022-11-16T08:02:21.562Z,89.14
2022-11-16T08:04:48.061Z,89.71
2022-11-16T08:07:16.551Z,89.05
2022-11-16T08:09:43.667Z,89.27
2022-11-16T08:12:10.250Z,89.75
2022-11-16T08:14:36.787Z,89.90
2022-11-16T08:17:05.104Z,89.89
2022-11-16T08:19:31.734Z,89.93
2022-11-16T08:21:58.288Z,89.91
2022-11-16T08:24:25.338Z,89.64
2022-11-16T08:26:51.968Z,89.76
2022-11-16T08:29:18.624Z,90.09
2022-11-16T08:31:45.984Z,89.57
2022-11-16T08:34:12.625Z,89.58
2022-11-16T08:36:39.298Z,89.94
2022-11-16T08:39:05.773Z,89.53
2022-11-16T08:41:32.671Z,89.69
2022-11-16T08:44:01.273Z,89.24
2022-11-16T08:46:28.149Z,89.36
2022-11-16T08:48:57.105Z,89.20
2022-11-16T08:51:24.848Z,89.33
2022-11-16T08:53:56.497Z,89.28
2022-11-16T08:56:23.974Z,89.71
2022-11-16T08:58:58.127Z,89.06
2022-11-16T09:01:28.202Z,89.30
2022-11-16T09:03:55.378Z,89.66
2022-11-16T09:06:24.291Z,88.20
2022-11-16T09:08:51.793Z,89.00
2022-11-16T09:11:21.843Z,89.01
2022-11-16T09:13:50.735Z,88.39
2022-11-16T09:16:20.855Z,88.97
2022-11-16T09:18:49.588Z,88.71
2022-11-16T09:21:20.222Z,88.62
2022-11-16T09:23:48.378Z,88.66
2022-11-16T09:26:15.847Z,87.91
2022-11-16T09:28:42.433Z,88.46
2022-11-16T09:31:10.509Z,88.62
2022-11-16T09:33:37.892Z,88.38
2022-11-16T09:36:08.139Z,87.41
2022-11-16T09:38:55.756Z,87.71
2022-11-16T09:41:52.750Z,87.38
2022-11-16T09:44:47.367Z,87.57
2022-11-16T09:47:24.038Z,87.85
2022-11-16T09:50:02.773Z,87.57
2022-11-16T09:52:46.637Z,86.80
2022-11-16T09:55:43.398Z,87.38
2022-11-16T09:58:17.840Z,86.88
2022-11-16T10:00:50.274Z,85.03
2022-11-16T10:03:17.079Z,85.29
2022-11-16T10:05:46.413Z,84.20
2022-11-16T10:08:31.900Z,87.05
2022-11-16T10:11:22.099Z,85.89
2022-11-16T10:14:22.492Z,86.64
2022-11-16T10:17:07.034Z,86.14
2022-11-16T10:19:36.382Z,80.46
2022-11-16T10:22:21.371Z,80.96
2022-11-16T10:24:53.628Z,83.99
2022-11-16T10:27:27.588Z,82.75
2022-11-16T10:29:57.005Z,84.70
2022-11-16T10:32:39.038Z,83.46
2022-11-16T10:35:12.725Z,84.59
2022-11-16T10:37:50.595Z,84.93
2022-11-16T10:40:36.291Z,85.25
2022-11-16T10:43:13.656Z,83.90
2022-11-16T10:45:50.756Z,83.19
2022-11-16T10:48:22.503Z,84.15
2022-11-16T10:50:53.140Z,84.22
2022-11-16T10:53:36.354Z,83.19
2022-11-16T10:56:22.280Z,82.42
2022-11-16T10:58:48.754Z,80.75
2022-11-16T11:01:28.457Z,82.68
2022-11-16T11:03:55.506Z,83.22
2022-11-16T11:06:26.722Z,81.48
2022-11-16T11:08:53.465Z,82.45
2022-11-16T11:11:42.716Z,82.43
2022-11-16T11:14:12.139Z,82.79
2022-11-16T11:16:41.522Z,81.42
2022-11-16T11:19:19.651Z,80.73
2022-11-16T11:21:47.586Z,81.73
2022-11-16T11:24:43.413Z,76.67
2022-11-16T11:27:03.733Z,80.80
2022-11-16T11:29:42.168Z,80.66
2022-11-16T11:32:22.383Z,80.07
2022-11-16T11:34:53.812Z,81.33
2022-11-16T11:37:29.164Z,79.93
2022-11-16T11:40:07.856Z,81.08
2022-11-16T11:42:51.145Z,76.29
2022-11-16T11:45:19.871Z,80.95
2022-11-16T11:47:59.985Z,78.46
2022-11-16T11:50:43.273Z,78.10
2022-11-16T11:53:47.404Z,79.33
2022-11-16T11:56:15.478Z,77.63
2022-11-16T11:58:43.153Z,78.55
2022-11-16T12:01:40.546Z,79.14
2022-11-16T12:04:28.812Z,78.10
2022-11-16T12:07:32.857Z,80.72
2022-11-16T12:10:20.734Z,77.44
2022-11-16T12:13:10.787Z,73.49
2022-11-16T12:15:57.725Z,74.47
2022-11-16T12:18:53.666Z,77.48
2022-11-16T12:21:30.011Z,78.92
2022-11-16T12:24:02.260Z,79.64
2022-11-16T12:26:50.331Z,78.37
2022-11-16T12:29:19.697Z,79.24
2022-11-16T12:32:14.395Z,77.01
2022-11-16T12:34:48.338Z,76.73
2022-11-16T12:37:39.572Z,77.00
2022-11-16T12:40:37.546Z,79.01
2022-11-16T12:43:13.251Z,78.12
2022-11-16T12:45:51.535Z,77.97
2022-11-16T12:48:36.724Z,76.92
2022-11-16T12:51:18.840Z,77.49
2022-11-16T12:53:54.400Z,74.86
2022-11-16T12:56:37.215Z,76.69
2022-11-16T12:59:34.690Z,77.89
2022-11-16T13:02:08.515Z,72.88
2022-11-16T13:04:43.625Z,75.18
2022-11-16T13:07:33.416Z,76.03
2022-11-16T13:10:13.649Z,75.96
2022-11-16T13:12:43.889Z,75.55
2022-11-16T13:15:19.327Z,75.16
2022-11-16T13:17:55.258Z,71.91
2022-11-16T13:20:33.506Z,74.98
2022-11-16T13:23:42.024Z,74.09
2022-11-16T13:26:18.168Z,76.03
2022-11-16T13:29:07.358Z,70.90
2022-11-16T13:31:39.448Z,70.49
2022-11-16T13:34:14.410Z,73.44
2022-11-16T13:36:45.400Z,75.51
2022-11-16T13:39:21.513Z,75.62
2022-11-16T13:41:49.111Z,74.92
2022-11-16T13:44:20.415Z,75.28
2022-11-16T13:46:56.797Z,74.81
2022-11-16T13:49:29.439Z,74.44
2022-11-16T13:52:16.872Z,75.44
2022-11-16T13:54:53.071Z,75.52
2022-11-16T13:57:26.724Z,72.16
2022-11-16T14:00:10.466Z,74.78
2022-11-16T14:02:42.884Z,75.31
2022-11-16T14:05:12.481Z,75.27
2022-11-16T14:07:45.356Z,75.30
2022-11-16T14:10:32.458Z,75.11
2022-11-16T14:13:04.520Z,75.16
2022-11-16T14:15:36.091Z,73.71
2022-11-16T14:18:32.375Z,69.35
2022-11-16T14:21:10.708Z,74.94
2022-11-16T14:24:05.598Z,74.42
2022-11-16T14:27:03.202Z,72.36
2022-11-16T14:30:08.364Z,72.69
2022-11-16T14:32:43.396Z,75.64
2022-11-16T14:35:27.105Z,74.17
2022-11-16T14:38:06.316Z,72.00
2022-11-16T14:40:42.992Z,73.83
2022-11-16T14:43:17.997Z,73.22
2022-11-16T14:45:52.020Z,73.79
2022-11-16T14:48:21.648Z,75.04
2022-11-16T14:51:08.381Z,72.30
2022-11-16T14:53:39.400Z,74.24
2022-11-16T14:56:08.841Z,74.58
2022-11-16T14:58:36.189Z,74.44
2022-11-16T15:01:06.232Z,74.42
2022-11-16T15:03:41.734Z,74.69
2022-11-16T15:06:08.728Z,74.80
2022-11-16T15:08:49.722Z,72.59
2022-11-16T15:11:25.410Z,73.76
2022-11-16T15:13:52.321Z,75.23
2022-11-16T15:16:20.312Z,74.66
2022-11-16T15:19:12.535Z,72.12
2022-11-16T15:21:38.984Z,75.41
2022-11-16T15:24:29.227Z,74.53
2022-11-16T15:26:52.700Z,75.96
2022-11-16T15:29:21.413Z,74.97
2022-11-16T15:31:49.166Z,76.01
2022-11-16T15:34:18.167Z,75.06
2022-11-16T15:36:46.007Z,75.67
2022-11-16T15:39:16.445Z,76.00
2022-11-16T15:41:43.578Z,75.48
2022-11-16T15:44:16.146Z,75.85
2022-11-16T15:46:47.371Z,75.62
2022-11-16T15:49:27.305Z,73.64
2022-11-16T15:51:54.250Z,76.21
2022-11-16T15:54:51.934Z,75.34
2022-11-16T15:57:20.424Z,75.83
2022-11-16T15:59:56.369Z,75.43
2022-11-16T16:02:27.544Z,75.81
2022-11-16T16:04:54.677Z,76.16
2022-11-16T16:07:43.040Z,74.48
2022-11-16T16:10:24.650Z,76.10
2022-11-16T16:12:58.563Z,76.22
2022-11-16T16:15:34.022Z,76.31
2022-11-16T16:18:02.388Z,76.22
2022-11-16T16:20:31.996Z,76.87
2022-11-16T16:23:16.472Z,75.51
2022-11-16T16:25:49.064Z,76.97
2022-11-16T16:28:16.867Z,77.01
2022-11-16T16:30:43.565Z,77.01
2022-11-16T16:33:19.450Z,76.29
2022-11-16T16:35:49.700Z,77.16
2022-11-16T16:38:16.474Z,76.60
2022-11-16T16:40:42.981Z,77.09
2022-11-16T16:43:09.633Z,76.21
2022-11-16T16:45:38.990Z,77.16
2022-11-16T16:48:06.443Z,77.24
2022-11-16T16:50:32.947Z,77.01
2022-11-16T16:52:59.707Z,77.42
2022-11-16T16:55:26.427Z,77.60
2022-11-16T16:57:56.551Z,77.03
2022-11-16T17:00:23.716Z,77.25
2022-11-16T17:02:50.748Z,77.32
2022-11-16T17:05:17.402Z,77.19
2022-11-16T17:07:43.948Z,77.29
2022-11-16T17:10:11.022Z,77.47
2022-11-16T17:12:37.558Z,76.53
2022-11-16T17:15:04.286Z,76.93
2022-11-16T17:17:31.731Z,77.33
2022-11-16T17:19:58.577Z,76.91
2022-11-16T17:22:25.426Z,77.35
2022-11-16T17:24:51.971Z,77.25
2022-11-16T17:27:18.664Z,77.40
2022-11-16T17:29:45.116Z,77.08
2022-11-16T17:32:11.797Z,77.12
2022-11-16T17:34:39.986Z,75.79
2022-11-16T17:37:06.747Z,76.90
2022-11-16T17:39:33.305Z,76.80
2022-11-16T17:41:59.861Z,75.93
2022-11-16T17:44:26.847Z,77.04
2022-11-16T17:46:53.303Z,77.12
2022-11-16T17:49:20.061Z,76.90
2022-11-16T17:51:46.477Z,77.41
2022-11-16T17:54:13.056Z,76.89
2022-11-16T17:56:39.587Z,77.33
2022-11-16T17:59:06.375Z,77.15
2022-11-16T18:01:33.418Z,77.46
2022-11-16T18:04:01.204Z,77.02
2022-11-16T18:06:28.224Z,76.89
2022-11-16T18:08:54.957Z,76.96
2022-11-16T18:11:24.075Z,77.21
2022-11-16T18:13:59.515Z,76.69
2022-11-16T18:16:28.737Z,77.59
2022-11-16T18:19:03.135Z,76.75
2022-11-16T18:21:29.999Z,77.25
2022-11-16T18:23:58.930Z,76.84
2022-11-16T18:26:25.604Z,76.79
2022-11-16T18:28:52.875Z,77.34
2022-11-16T18:31:21.932Z,76.53
2022-11-16T18:33:51.941Z,76.54
2022-11-16T18:36:20.010Z,77.54
2022-11-16T18:38:46.937Z,77.54
2022-11-16T18:41:13.509Z,77.28
2022-11-16T18:43:39.895Z,77.34
2022-11-16T18:46:06.742Z,77.13
2022-11-16T18:48:33.593Z,77.16
2022-11-16T18:51:01.711Z,76.55
2022-11-16T18:53:29.731Z,77.50
2022-11-16T18:55:58.052Z,77.85
2022-11-16T19:01:14.839Z,77.07
2022-11-16T19:03:41.650Z,76.00
2022-11-16T19:06:09.781Z,77.18
2022-11-16T19:08:38.052Z,77.03
2022-11-16T19:11:13.612Z,76.98
2022-11-16T19:13:42.108Z,77.15
2022-11-16T19:16:11.583Z,76.49
2022-11-16T19:18:38.930Z,77.35
2022-11-16T19:21:09.965Z,77.23
2022-11-16T19:23:42.822Z,76.90
2022-11-16T19:26:10.356Z,77.13
2022-11-16T19:28:38.364Z,77.02
2022-11-16T19:31:15.725Z,77.33
2022-11-16T19:33:43.018Z,77.53
2022-11-16T19:36:12.535Z,77.53
2022-11-16T19:38:39.537Z,77.31
2022-11-16T19:41:07.330Z,77.49
2022-11-16T19:43:34.749Z,77.74
2022-11-16T19:46:10.475Z,75.88
2022-11-16T19:48:37.698Z,77.88
2022-11-16T19:51:09.166Z,77.78
2022-11-16T19:53:36.429Z,77.28
2022-11-16T19:56:04.234Z,77.40
2022-11-16T19:58:32.016Z,77.86
2022-11-16T20:01:07.042Z,77.20
2022-11-16T20:03:34.702Z,77.35
2022-11-16T20:06:07.118Z,76.95
2022-11-16T20:08:33.802Z,76.05
2022-11-16T20:11:00.452Z,77.55
2022-11-16T20:13:27.060Z,77.27
2022-11-16T20:15:53.573Z,77.48
2022-11-16T20:18:20.129Z,77.50
2022-11-16T20:20:46.672Z,77.22
2022-11-16T20:23:15.668Z,77.25
2022-11-16T20:25:42.185Z,77.09
2022-11-16T20:28:09.554Z,77.35
2022-11-16T20:30:38.093Z,77.30
2022-11-16T20:33:04.562Z,77.52
2022-11-16T20:35:31.085Z,76.79
2022-11-16T20:37:57.687Z,77.42
2022-11-16T20:40:24.956Z,77.35
2022-11-16T20:42:51.454Z,76.61
2022-11-16T20:45:17.980Z,77.83
2022-11-16T20:47:44.552Z,77.35
2022-11-16T20:50:11.078Z,76.77
2022-11-16T20:52:42.433Z,77.40
2022-11-16T20:55:10.194Z,76.93
2022-11-16T20:57:37.277Z,76.96
2022-11-16T21:00:05.083Z,76.74
2022-11-16T21:02:31.655Z,77.12
2022-11-16T21:05:00.484Z,76.83
2022-11-16T21:07:27.339Z,76.35
2022-11-16T21:10:12.205Z,75.60
2022-11-16T21:12:57.158Z,75.65
2022-11-16T21:15:23.602Z,76.25
2022-11-16T21:17:50.100Z,75.43
2022-11-16T21:20:32.256Z,75.22
2022-11-16T21:22:58.748Z,75.44
2022-11-16T21:25:25.277Z,75.38
2022-11-16T21:27:51.812Z,75.51
2022-11-16T21:30:19.880Z,75.30
2022-11-16T21:32:46.409Z,75.80
2022-11-16T21:35:13.109Z,76.07
2022-11-16T21:37:39.695Z,75.86
2022-11-16T21:40:06.668Z,76.66
2022-11-16T21:42:33.244Z,76.11
2022-11-16T21:44:59.731Z,76.21
2022-11-16T21:47:26.357Z,76.31
2022-11-16T21:50:29.669Z,77.49
2022-11-16T21:52:39.329Z,75.96
2022-11-16T21:55:06.152Z,77.10
2022-11-16T21:57:32.670Z,76.64
2022-11-16T22:00:00.987Z,76.25
2022-11-16T22:02:27.596Z,76.37
2022-11-16T22:05:12.624Z,78.88
2022-11-16T22:07:41.155Z,78.00
2022-11-16T22:10:10.152Z,76.90
2022-11-16T22:12:37.443Z,77.42
2022-11-16T22:15:05.971Z,76.57
2022-11-16T22:17:33.298Z,76.88
2022-11-16T22:19:59.773Z,76.76
2022-11-16T22:22:26.424Z,77.31
2022-11-16T22:24:53.081Z,77.35
2022-11-16T22:27:19.742Z,77.73
2022-11-16T22:29:46.270Z,77.09
2022-11-16T22:32:12.814Z,76.96
2022-11-16T22:34:39.407Z,77.53
2022-11-16T22:37:05.957Z,77.53
2022-11-16T22:39:32.556Z,78.71
2022-11-16T22:41:59.023Z,80.18
2022-11-16T22:44:25.508Z,79.02
2022-11-16T22:46:52.693Z,79.07
2022-11-16T22:49:19.655Z,78.32
2022-11-16T22:51:46.451Z,78.60
2022-11-16T22:54:13.523Z,77.85
2022-11-16T22:56:40.060Z,78.64
2022-11-16T22:59:06.827Z,79.06
2022-11-16T23:01:33.558Z,78.41
2022-11-16T23:04:00.270Z,80.40
2022-11-16T23:06:27.304Z,79.31
2022-11-16T23:08:54.119Z,79.45
2022-11-16T23:11:43.471Z,78.03
2022-11-16T23:14:31.131Z,78.93
2022-11-16T23:16:58.077Z,81.05
2022-11-16T23:19:44.274Z,81.32
2022-11-16T23:22:37.394Z,79.48
2022-11-16T23:25:24.073Z,79.62
2022-11-16T23:28:05.630Z,79.01
2022-11-16T23:30:32.827Z,79.79
2022-11-16T23:32:59.445Z,82.48
2022-11-16T23:35:25.998Z,80.28
2022-11-16T23:38:01.098Z,83.05
2022-11-16T23:40:30.503Z,80.45
2022-11-16T23:43:16.555Z,83.47
2022-11-16T23:45:43.717Z,81.72
2022-11-16T23:48:12.092Z,83.37
2022-11-16T23:50:38.731Z,84.17
2022-11-16T23:53:06.845Z,83.98
2022-11-16T23:55:34.782Z,85.19
2022-11-16T23:58:01.595Z,84.63
